Time;durP1;ratioP1;P1;durP2;ratioP2;P2;SDS_P1;SDS_P2;PMS_P1;PMS_P2;Temp;Humidity;BMP_temperature;BMP_pressure;BME280_temperature;BME280_humidity;BME280_pressure;Samples;Min_cycle;Max_cycle;Signal;HPM_P1;HPM_P2
2021/12/15 00:00:47;;;;;;;40.63;23.90;;;9.60;99.90;;;;;;2612868;54;20415;-78
2021/12/15 00:03:16;;;;;;;29.00;21.90;;;9.50;99.90;;;;;;2610846;51;20427;-76
2021/12/15 00:05:45;;;;;;;36.23;21.43;;;9.70;99.90;;;;;;2612579;54;20426;-78
2021/12/15 00:08:11;;;;;;;28.27;20.50;;;9.90;99.90;;;;;;2612212;54;21106;-78
2021/12/15 00:10:39;;;;;;;29.83;21.60;;;10.20;99.90;;;;;;2612754;54;20394;-78
2021/12/15 00:13:06;;;;;;;30.47;19.50;;;9.90;99.90;;;;;;2612898;54;20451;-79
2021/12/15 00:15:32;;;;;;;28.30;18.50;;;9.70;99.90;;;;;;2613120;54;20416;-78
2021/12/15 00:17:58;;;;;;;30.60;20.70;;;9.60;99.90;;;;;;2611903;54;20465;-79
2021/12/15 00:20:25;;;;;;;30.47;20.13;;;9.50;99.90;;;;;;2612536;54;20467;-79
2021/12/15 00:22:52;;;;;;;30.27;20.20;;;10.00;99.90;;;;;;2612352;54;21354;-78
2021/12/15 00:25:22;;;;;;;32.73;21.33;;;10.00;99.90;;;;;;2613751;39;20819;-79
2021/12/15 00:27:49;;;;;;;29.47;21.10;;;9.70;99.90;;;;;;2613269;54;20412;-78
2021/12/15 00:30:15;;;;;;;27.53;17.63;;;9.70;99.90;;;;;;2614744;39;20931;-78
2021/12/15 00:32:41;;;;;;;27.83;17.10;;;9.60;99.90;;;;;;2612061;54;20407;-77
2021/12/15 00:35:09;;;;;;;27.83;18.50;;;9.60;99.90;;;;;;2614757;54;21366;-78
2021/12/15 00:37:35;;;;;;;28.60;20.60;;;9.50;99.90;;;;;;2612011;54;21137;-77
2021/12/15 00:40:02;;;;;;;25.20;17.50;;;9.60;99.90;;;;;;2614120;54;20411;-78
2021/12/15 00:42:29;;;;;;;29.53;19.20;;;9.50;99.90;;;;;;2613315;54;20407;-79
2021/12/15 00:44:55;;;;;;;30.77;18.83;;;9.40;99.90;;;;;;2613949;54;20440;-78
2021/12/15 00:47:22;;;;;;;21.57;16.40;;;9.60;99.90;;;;;;2614547;54;20405;-79
2021/12/15 00:49:51;;;;;;;27.27;16.83;;;9.50;99.90;;;;;;2613956;54;20438;-77
2021/12/15 00:52:17;;;;;;;26.23;17.93;;;9.40;99.90;;;;;;2613591;54;20454;-78
2021/12/15 00:54:44;;;;;;;26.17;16.27;;;9.40;99.90;;;;;;2614485;54;20455;-76
2021/12/15 00:57:10;;;;;;;23.27;18.07;;;9.30;99.90;;;;;;2613838;54;21039;-79
2021/12/15 00:59:36;;;;;;;23.30;15.70;;;9.40;99.90;;;;;;2614025;47;20166;-79
2021/12/15 01:02:05;;;;;;;21.13;15.03;;;9.60;99.90;;;;;;2613980;54;20428;-78
2021/12/15 01:04:32;;;;;;;23.83;17.47;;;9.60;99.90;;;;;;2614180;46;20468;-78
2021/12/15 01:07:03;;;;;;;24.90;15.17;;;9.60;99.90;;;;;;2614772;54;20415;-75
2021/12/15 01:09:35;;;;;;;22.80;16.30;;;9.40;99.90;;;;;;2613947;47;20488;-79
2021/12/15 01:20:27;;;;;;;20.10;14.50;;;9.70;99.90;;;;;;2614598;54;20448;-78
2021/12/15 01:22:55;;;;;;;26.50;18.43;;;9.60;99.90;;;;;;2614360;54;20459;-79
2021/12/15 01:25:32;;;;;;;21.87;14.80;;;9.70;99.90;;;;;;2613485;47;20439;-78
2021/12/15 01:28:00;;;;;;;23.73;15.30;;;9.70;99.90;;;;;;2613108;46;20430;-78
2021/12/15 01:30:29;;;;;;;24.43;15.10;;;9.50;99.90;;;;;;2612409;54;20953;-78
2021/12/15 01:32:57;;;;;;;20.60;14.70;;;9.50;99.90;;;;;;2612127;47;21427;-78
2021/12/15 01:35:23;;;;;;;23.93;14.77;;;9.50;99.90;;;;;;2613207;54;20432;-74
2021/12/15 01:37:50;;;;;;;21.00;15.43;;;9.60;99.90;;;;;;2613861;54;21026;-80
2021/12/15 01:40:32;;;;;;;24.60;15.10;;;9.60;99.90;;;;;;2613789;47;20942;-79
2021/12/15 01:42:58;;;;;;;20.23;15.23;;;9.60;99.90;;;;;;2614914;54;20424;-79
2021/12/15 01:48:14;;;;;;;21.93;14.53;;;9.50;99.90;;;;;;2613491;54;20419;-77
2021/12/15 01:50:43;;;;;;;23.20;14.57;;;9.40;99.90;;;;;;2614076;54;20418;-75
2021/12/15 01:53:10;;;;;;;18.90;13.27;;;9.50;99.90;;;;;;2613242;54;20419;-77
2021/12/15 01:55:36;;;;;;;17.70;13.87;;;9.40;99.90;;;;;;2615198;31;20908;-78
2021/12/15 01:58:04;;;;;;;18.53;10.97;;;9.50;99.90;;;;;;2613637;47;20441;-78
2021/12/15 02:00:55;;;;;;;20.53;14.30;;;9.40;99.90;;;;;;2614114;54;20530;-72
2021/12/15 02:03:21;;;;;;;22.83;16.20;;;9.30;99.90;;;;;;2612306;54;20430;-71
2021/12/15 02:05:48;;;;;;;17.53;12.53;;;9.40;99.90;;;;;;2612762;47;20430;-71
2021/12/15 02:08:14;;;;;;;20.70;15.00;;;9.30;99.90;;;;;;2612737;54;20447;-74
2021/12/15 02:10:42;;;;;;;25.83;15.50;;;9.40;99.90;;;;;;2612731;54;20423;-71
2021/12/15 02:13:10;;;;;;;19.97;14.50;;;9.40;99.90;;;;;;2612187;54;20526;-71
2021/12/15 02:15:43;;;;;;;19.43;15.80;;;9.40;99.90;;;;;;2613065;39;20589;-72
2021/12/15 02:18:16;;;;;;;24.77;14.67;;;9.50;99.90;;;;;;2611795;47;20469;-71
2021/12/15 02:20:46;;;;;;;22.60;14.27;;;9.30;99.90;;;;;;2611832;54;20472;-71
2021/12/15 02:23:16;;;;;;;17.80;13.37;;;9.20;99.90;;;;;;2612795;54;20477;-72
2021/12/15 02:25:42;;;;;;;20.47;14.90;;;9.10;99.90;;;;;;2612881;54;21306;-72
2021/12/15 02:28:08;;;;;;;24.63;15.97;;;9.20;99.90;;;;;;2612856;54;20415;-73
2021/12/15 02:30:54;;;;;;;24.00;15.40;;;9.20;99.90;;;;;;2611709;54;20411;-71
2021/12/15 02:33:43;;;;;;;21.20;15.20;;;9.20;99.90;;;;;;2611502;47;20518;-72
2021/12/15 02:38:54;;;;;;;16.40;13.23;;;9.20;99.90;;;;;;2612308;47;20407;-71
2021/12/15 02:41:23;;;;;;;20.77;15.47;;;9.10;99.90;;;;;;2612806;39;20799;-71
2021/12/15 02:43:59;;;;;;;27.03;16.50;;;9.30;99.90;;;;;;2611208;47;20404;-72
2021/12/15 02:46:27;;;;;;;20.70;14.60;;;9.20;99.90;;;;;;2613304;39;20934;-72
2021/12/15 02:48:53;;;;;;;26.07;14.27;;;9.40;99.90;;;;;;2612830;54;20394;-72
2021/12/15 02:51:20;;;;;;;26.67;17.03;;;9.40;99.90;;;;;;2613095;54;20439;-72
2021/12/15 02:53:47;;;;;;;22.10;15.50;;;9.20;99.90;;;;;;2611552;54;20419;-72
2021/12/15 02:56:14;;;;;;;25.20;15.77;;;9.30;99.90;;;;;;2611961;54;20435;-74
2021/12/15 02:58:49;;;;;;;24.20;15.83;;;9.20;99.90;;;;;;2611647;54;20964;-72
2021/12/15 03:01:21;;;;;;;25.73;15.90;;;9.40;99.90;;;;;;2613708;54;20557;-71
2021/12/15 03:04:16;;;;;;;26.13;17.10;;;9.30;99.90;;;;;;2612574;31;20894;-71
2021/12/15 03:06:45;;;;;;;27.40;16.97;;;9.40;99.90;;;;;;2612065;54;20486;-71
2021/12/15 03:15:17;;;;;;;25.93;17.40;;;9.30;99.90;;;;;;2610780;47;20414;-73
2021/12/15 03:17:29;;;;;;;24.37;16.20;;;9.00;99.90;;;;;;2612110;54;20424;-72
2021/12/15 03:19:55;;;;;;;21.97;16.50;;;8.90;99.90;;;;;;2612884;54;20458;-72
2021/12/15 03:22:20;;;;;;;30.30;16.03;;;9.00;99.90;;;;;;2612385;54;20435;-71
2021/12/15 03:24:47;;;;;;;24.80;16.23;;;9.00;99.90;;;;;;2612962;39;20629;-71
2021/12/15 03:27:19;;;;;;;27.03;13.00;;;9.10;99.90;;;;;;2613083;39;20547;-71
2021/12/15 03:37:55;;;;;;;28.03;15.20;;;9.30;99.90;;;;;;2612677;54;20980;-71
2021/12/15 03:40:25;;;;;;;23.60;17.60;;;9.10;99.90;;;;;;2612622;54;20434;-72
2021/12/15 03:42:58;;;;;;;20.93;11.90;;;9.20;99.90;;;;;;2613738;54;20432;-71
2021/12/15 03:45:29;;;;;;;28.87;16.27;;;9.00;99.90;;;;;;2612938;54;20398;-71
2021/12/15 03:47:58;;;;;;;27.40;16.67;;;9.20;99.90;;;;;;2611804;50;20423;-72
2021/12/15 03:50:26;;;;;;;26.40;17.70;;;9.20;99.90;;;;;;2613890;54;20431;-72
2021/12/15 03:52:52;;;;;;;25.50;17.47;;;9.20;99.90;;;;;;2612828;47;21096;-71
2021/12/15 03:55:22;;;;;;;23.13;16.07;;;9.20;99.90;;;;;;2613174;54;20456;-71
2021/12/15 03:57:48;;;;;;;20.50;14.50;;;9.10;99.90;;;;;;2612174;54;20949;-71
2021/12/15 04:00:15;;;;;;;25.90;16.23;;;9.10;99.90;;;;;;2614244;54;20423;-72
2021/12/15 04:02:45;;;;;;;21.47;14.00;;;9.10;99.90;;;;;;2612877;47;20961;-71
2021/12/15 04:05:14;;;;;;;22.00;15.93;;;9.20;99.90;;;;;;2612908;47;20427;-71
2021/12/15 04:07:40;;;;;;;19.90;13.40;;;9.10;99.90;;;;;;2611944;54;23098;-71
2021/12/15 04:10:11;;;;;;;29.07;17.60;;;9.00;99.90;;;;;;2611718;47;20423;-70
2021/12/15 04:12:37;;;;;;;24.07;16.07;;;9.20;99.90;;;;;;2612451;47;20526;-71
2021/12/15 04:15:53;;;;;;;24.77;16.80;;;9.10;99.90;;;;;;2612955;54;20415;-73
2021/12/15 04:17:59;;;;;;;22.67;15.47;;;9.10;99.90;;;;;;2613613;39;22041;-73
2021/12/15 04:20:30;;;;;;;26.73;16.17;;;9.10;99.90;;;;;;2613536;54;20466;-72
2021/12/15 04:22:58;;;;;;;29.73;17.60;;;9.20;99.90;;;;;;2612642;47;20498;-71
2021/12/15 04:25:28;;;;;;;28.07;17.27;;;9.10;99.90;;;;;;2613289;54;20408;-73
2021/12/15 04:28:02;;;;;;;23.70;16.90;;;9.20;99.90;;;;;;2612530;47;20465;-71
2021/12/15 04:30:31;;;;;;;24.43;15.07;;;9.20;99.90;;;;;;2613584;54;20406;-72
2021/12/15 04:33:00;;;;;;;26.90;18.23;;;9.20;99.90;;;;;;2612421;54;20422;-74
2021/12/15 04:35:26;;;;;;;22.47;15.00;;;9.30;99.90;;;;;;2613059;47;20430;-71
2021/12/15 04:37:53;;;;;;;27.50;17.07;;;9.30;99.90;;;;;;2612446;54;20545;-71
2021/12/15 04:40:21;;;;;;;30.23;16.93;;;9.30;99.90;;;;;;2613485;39;20942;-74
2021/12/15 04:42:47;;;;;;;26.23;16.93;;;9.30;99.90;;;;;;2611895;47;20427;-72
2021/12/15 04:45:18;;;;;;;23.20;16.10;;;9.20;99.90;;;;;;2612630;54;20424;-71
2021/12/15 04:47:45;;;;;;;31.40;16.80;;;9.10;99.90;;;;;;2614120;54;20975;-71
2021/12/15 04:50:11;;;;;;;32.17;14.30;;;9.10;99.90;;;;;;2612816;54;20426;-72
2021/12/15 04:52:38;;;;;;;25.90;14.73;;;9.00;99.90;;;;;;2613501;54;20417;-71
2021/12/15 04:55:07;;;;;;;25.10;16.07;;;9.10;99.90;;;;;;2612674;47;20415;-72
2021/12/15 04:57:33;;;;;;;27.23;17.50;;;9.10;99.90;;;;;;2612589;54;20761;-71
2021/12/15 05:00:00;;;;;;;22.23;14.20;;;9.10;99.90;;;;;;2612648;39;21165;-72
2021/12/15 05:02:26;;;;;;;19.20;13.77;;;9.20;99.90;;;;;;2613907;39;20817;-71
2021/12/15 05:04:52;;;;;;;27.00;17.47;;;9.20;99.90;;;;;;2612904;54;20512;-72
2021/12/15 05:07:19;;;;;;;26.37;16.10;;;9.40;99.90;;;;;;2612734;47;20428;-72
2021/12/15 05:09:50;;;;;;;19.47;12.50;;;9.50;99.90;;;;;;2612774;54;20424;-73
2021/12/15 05:12:18;;;;;;;28.47;16.63;;;9.50;99.90;;;;;;2612107;54;20415;-73
2021/12/15 05:14:44;;;;;;;22.87;15.53;;;9.40;99.90;;;;;;2612598;54;20445;-71
2021/12/15 05:17:10;;;;;;;24.10;15.10;;;9.30;99.90;;;;;;2612784;54;20515;-73
2021/12/15 05:19:36;;;;;;;28.77;15.20;;;9.30;99.90;;;;;;2612374;54;20443;-72
2021/12/15 05:22:04;;;;;;;22.73;14.37;;;9.20;99.90;;;;;;2612684;54;20412;-74
2021/12/15 05:24:30;;;;;;;22.30;14.60;;;9.20;99.90;;;;;;2613230;54;20384;-72
2021/12/15 05:27:13;;;;;;;26.80;15.37;;;9.10;99.90;;;;;;2613429;54;20956;-71
2021/12/15 05:29:41;;;;;;;20.53;14.20;;;9.20;99.90;;;;;;2613328;54;20426;-72
2021/12/15 05:32:09;;;;;;;17.87;13.50;;;9.20;99.90;;;;;;2613336;54;20416;-72
2021/12/15 05:34:36;;;;;;;21.90;15.10;;;9.20;99.90;;;;;;2612864;47;20562;-71
2021/12/15 05:37:03;;;;;;;23.40;15.40;;;9.30;99.90;;;;;;2613500;54;20921;-71
2021/12/15 05:39:29;;;;;;;21.43;13.53;;;9.30;99.90;;;;;;2612791;54;20442;-70
2021/12/15 05:41:55;;;;;;;20.67;13.57;;;9.30;99.90;;;;;;2609729;54;20411;-76
2021/12/15 05:44:22;;;;;;;18.10;13.00;;;9.20;99.90;;;;;;2611824;54;21212;-71
2021/12/15 05:46:50;;;;;;;18.87;14.20;;;9.20;99.90;;;;;;2612353;54;20983;-71
2021/12/15 05:49:16;;;;;;;18.13;11.97;;;9.20;99.90;;;;;;2612218;54;20466;-73
2021/12/15 05:51:41;;;;;;;18.07;11.83;;;9.30;99.90;;;;;;2610861;54;20415;-71
2021/12/15 05:54:09;;;;;;;18.27;12.57;;;9.20;99.90;;;;;;2611441;54;20162;-71
2021/12/15 05:56:35;;;;;;;16.83;13.03;;;9.20;99.90;;;;;;2611862;54;20506;-74
2021/12/15 05:59:02;;;;;;;22.33;13.63;;;9.20;99.90;;;;;;2611436;54;20423;-72
2021/12/15 06:01:28;;;;;;;25.50;14.50;;;9.10;99.90;;;;;;2611400;54;20423;-74
2021/12/15 06:03:54;;;;;;;18.30;13.23;;;9.30;99.90;;;;;;2610455;54;20412;-74
2021/12/15 06:06:20;;;;;;;19.90;14.13;;;9.30;99.90;;;;;;2611380;54;20407;-75
2021/12/15 06:08:46;;;;;;;18.47;13.67;;;9.50;99.90;;;;;;2611008;54;20428;-75
2021/12/15 06:11:12;;;;;;;16.57;12.00;;;9.60;99.90;;;;;;2610963;54;20483;-75
2021/12/15 06:13:40;;;;;;;16.10;12.53;;;9.60;99.90;;;;;;2611268;39;20780;-74
2021/12/15 06:16:07;;;;;;;20.10;12.20;;;9.40;99.90;;;;;;2609528;54;20433;-73
2021/12/15 06:18:33;;;;;;;17.93;13.77;;;9.60;99.90;;;;;;2610779;50;20462;-72
2021/12/15 06:20:59;;;;;;;16.90;11.50;;;9.60;99.90;;;;;;2611958;46;20484;-73
2021/12/15 06:23:27;;;;;;;19.67;13.53;;;9.50;99.90;;;;;;2611717;54;20430;-73
2021/12/15 06:25:57;;;;;;;19.00;12.53;;;9.60;99.90;;;;;;2611842;54;21046;-73
2021/12/15 06:28:25;;;;;;;18.60;13.30;;;9.40;99.90;;;;;;2610588;51;20464;-72
2021/12/15 06:30:51;;;;;;;20.80;14.27;;;9.30;99.90;;;;;;2611469;54;20421;-72
2021/12/15 06:33:17;;;;;;;20.75;14.43;;;9.30;99.90;;;;;;2611507;39;20912;-72
2021/12/15 06:35:53;;;;;;;21.77;15.70;;;9.40;99.90;;;;;;2608656;54;20814;-72
2021/12/15 06:38:21;;;;;;;19.07;13.30;;;9.60;99.90;;;;;;2608712;54;20437;-76
2021/12/15 06:40:47;;;;;;;20.20;13.80;;;9.60;99.90;;;;;;2609779;47;20431;-71
2021/12/15 06:43:14;;;;;;;15.47;12.30;;;9.40;99.90;;;;;;2611087;54;20548;-71
2021/12/15 06:45:56;;;;;;;15.83;11.27;;;9.30;99.90;;;;;;2605447;54;20486;-71
2021/12/15 06:59:20;;;;;;;18.03;13.77;;;9.20;99.90;;;;;;2610465;54;20408;-71
2021/12/15 07:01:49;;;;;;;20.50;13.53;;;9.30;99.90;;;;;;2610764;51;20435;-74
2021/12/15 07:04:15;;;;;;;22.50;14.27;;;9.50;99.90;;;;;;2609890;54;21237;-72
2021/12/15 07:06:41;;;;;;;19.90;15.10;;;9.70;99.90;;;;;;2608539;54;20418;-72
2021/12/15 07:09:07;;;;;;;18.57;13.67;;;9.70;99.90;;;;;;2609587;39;20893;-73
2021/12/15 07:11:34;;;;;;;19.37;14.80;;;9.70;99.90;;;;;;2609249;39;20633;-72
2021/12/15 07:14:00;;;;;;;21.53;13.77;;;9.40;99.90;;;;;;2610959;54;20246;-75
2021/12/15 07:16:28;;;;;;;23.33;12.67;;;9.50;99.90;;;;;;2609138;54;20388;-71
2021/12/15 07:19:06;;;;;;;18.63;13.37;;;9.70;99.90;;;;;;2608943;47;20261;-74
2021/12/15 07:21:36;;;;;;;18.60;14.67;;;9.70;99.90;;;;;;2604462;54;20481;-75
2021/12/15 07:24:04;;;;;;;21.27;14.10;;;9.60;99.90;;;;;;2607298;47;20425;-72
2021/12/15 07:26:29;;;;;;;20.23;14.87;;;9.50;99.90;;;;;;2610612;54;20436;-71
2021/12/15 07:28:55;;;;;;;22.27;15.57;;;9.60;99.90;;;;;;2610868;54;20428;-74
2021/12/15 07:31:21;;;;;;;21.27;14.50;;;9.60;99.90;;;;;;2613554;39;20797;-72
2021/12/15 07:33:47;;;;;;;22.33;14.60;;;9.70;99.90;;;;;;2612517;54;20418;-71
2021/12/15 07:36:17;;;;;;;20.17;14.00;;;9.70;99.90;;;;;;2612523;54;20416;-72
2021/12/15 07:38:45;;;;;;;17.73;12.67;;;9.60;99.90;;;;;;2610860;54;20403;-72
2021/12/15 07:41:41;;;;;;;18.87;13.77;;;9.80;99.90;;;;;;2612236;54;20980;-71
2021/12/15 07:44:06;;;;;;;21.17;16.13;;;10.00;99.90;;;;;;2612331;47;20547;-71
2021/12/15 07:46:34;;;;;;;22.50;15.33;;;9.80;99.90;;;;;;2611526;54;20407;-74
2021/12/15 07:49:00;;;;;;;18.90;14.13;;;9.80;99.90;;;;;;2613219;39;20578;-70
2021/12/15 07:51:26;;;;;;;20.83;15.13;;;9.70;99.90;;;;;;2609829;54;20423;-72
2021/12/15 07:53:54;;;;;;;18.47;13.97;;;9.80;99.90;;;;;;2606737;54;20535;-70
2021/12/15 07:56:20;;;;;;;23.43;13.63;;;9.70;99.90;;;;;;2613091;54;20940;-70
2021/12/15 07:58:46;;;;;;;20.30;13.77;;;9.70;99.90;;;;;;2612043;54;20424;-73
2021/12/15 08:01:12;;;;;;;19.33;14.50;;;9.40;99.90;;;;;;2611855;54;20238;-71
2021/12/15 08:03:40;;;;;;;22.43;14.60;;;9.50;99.90;;;;;;2609601;54;21000;-72
2021/12/15 08:06:07;;;;;;;19.70;14.73;;;9.50;99.90;;;;;;2611036;54;20426;-74
2021/12/15 08:08:33;;;;;;;20.60;14.30;;;9.40;99.90;;;;;;2611034;54;20427;-70
2021/12/15 08:10:59;;;;;;;21.30;14.47;;;9.60;99.90;;;;;;2623710;36;21111;-74
2021/12/15 08:13:31;;;;;;;19.23;14.37;;;9.50;99.90;;;;;;2605689;54;20408;-71
2021/12/15 08:15:58;;;;;;;21.20;14.20;;;9.40;99.90;;;;;;2609742;54;20448;-72
2021/12/15 08:18:26;;;;;;;17.27;12.67;;;9.40;99.90;;;;;;2611724;54;20419;-71
2021/12/15 08:20:52;;;;;;;20.33;14.43;;;9.40;99.90;;;;;;2611748;54;20463;-73
2021/12/15 08:23:18;;;;;;;21.07;14.77;;;9.40;99.90;;;;;;2610445;47;20415;-72
2021/12/15 08:25:45;;;;;;;21.47;14.53;;;9.50;99.90;;;;;;2609159;54;20435;-71
2021/12/15 08:28:12;;;;;;;22.50;15.07;;;9.50;99.90;;;;;;2612305;39;20539;-73
2021/12/15 08:30:40;;;;;;;21.27;13.77;;;9.60;99.90;;;;;;2611744;54;20428;-71
2021/12/15 08:33:11;;;;;;;21.13;15.93;;;9.50;99.90;;;;;;2612997;54;20426;-74
2021/12/15 08:35:44;;;;;;;19.83;15.30;;;9.50;99.90;;;;;;2612276;54;20411;-70
2021/12/15 08:38:11;;;;;;;20.23;12.93;;;9.60;99.90;;;;;;2609891;39;20891;-70
2021/12/15 08:40:39;;;;;;;22.40;14.80;;;9.30;99.90;;;;;;2611850;39;21171;-72
2021/12/15 08:43:07;;;;;;;24.80;16.20;;;9.40;99.90;;;;;;2611562;47;20411;-73
2021/12/15 08:45:36;;;;;;;17.07;12.00;;;9.60;99.90;;;;;;2612697;54;20507;-70
2021/12/15 08:48:04;;;;;;;24.23;16.40;;;9.40;99.90;;;;;;2613004;54;20414;-73
2021/12/15 08:50:33;;;;;;;22.10;14.90;;;9.30;99.90;;;;;;2611414;54;20431;-70
2021/12/15 08:53:00;;;;;;;23.50;16.50;;;9.30;99.90;;;;;;2610820;54;20430;-70
2021/12/15 08:55:27;;;;;;;24.57;15.60;;;9.40;99.90;;;;;;2613429;54;20423;-71
2021/12/15 08:57:56;;;;;;;23.67;16.97;;;9.40;99.90;;;;;;2611254;54;20416;-73
2021/12/15 09:00:25;;;;;;;15.23;10.97;;;9.50;99.90;;;;;;2613321;54;20407;-71
2021/12/15 09:02:54;;;;;;;26.17;17.57;;;9.50;99.90;;;;;;2611787;39;20898;-71
2021/12/15 09:05:22;;;;;;;24.60;15.40;;;9.50;99.90;;;;;;2611385;54;20430;-73
2021/12/15 09:07:55;;;;;;;19.00;13.20;;;9.40;99.90;;;;;;2608751;54;20419;-73
2021/12/15 09:10:23;;;;;;;25.20;16.20;;;9.40;99.90;;;;;;2611919;54;20495;-71
2021/12/15 09:12:49;;;;;;;19.80;14.30;;;9.40;99.90;;;;;;2611647;47;20410;-71
2021/12/15 09:15:16;;;;;;;17.33;12.77;;;9.30;99.90;;;;;;2611641;47;20415;-74
2021/12/15 09:17:43;;;;;;;26.90;18.23;;;9.30;99.90;;;;;;2611632;54;20464;-73
2021/12/15 09:20:14;;;;;;;27.70;15.77;;;9.60;99.90;;;;;;2611530;54;20534;-72
2021/12/15 09:22:40;;;;;;;21.00;14.73;;;9.40;99.90;;;;;;2610620;54;20415;-72
2021/12/15 09:25:11;;;;;;;23.70;12.63;;;9.40;99.90;;;;;;2611495;54;20412;-71
2021/12/15 09:27:38;;;;;;;22.07;15.93;;;9.40;99.90;;;;;;2611339;54;20444;-71
2021/12/15 09:30:08;;;;;;;26.57;17.93;;;9.50;99.90;;;;;;2612700;54;20983;-72
2021/12/15 09:32:34;;;;;;;25.47;16.10;;;9.40;99.90;;;;;;2610975;46;20998;-71
2021/12/15 09:35:00;;;;;;;28.10;18.10;;;9.50;99.90;;;;;;2611630;54;20407;-72
2021/12/15 09:37:28;;;;;;;26.50;17.60;;;9.40;99.90;;;;;;2608275;39;20834;-72
2021/12/15 09:39:58;;;;;;;26.07;18.40;;;9.50;99.90;;;;;;2610261;47;20435;-71
2021/12/15 09:42:32;;;;;;;26.30;16.40;;;9.50;99.90;;;;;;2609770;47;20408;-71
2021/12/15 09:45:18;;;;;;;30.00;19.23;;;9.70;99.90;;;;;;2610257;54;20430;-72
2021/12/15 10:04:38;;;;;;;25.90;16.80;;;9.60;99.90;;;;;;2607883;54;20797;-72
2021/12/15 10:17:26;;;;;;;25.20;17.57;;;9.80;99.90;;;;;;2610202;54;21004;-74
2021/12/15 10:18:24;;;;;;;28.83;18.07;;;9.80;99.90;;;;;;2611317;54;20398;-72
2021/12/15 10:20:50;;;;;;;24.47;15.50;;;9.70;99.90;;;;;;2610720;47;20478;-72
2021/12/15 10:23:25;;;;;;;24.43;16.87;;;9.80;99.90;;;;;;2611386;39;20980;-71
2021/12/15 10:25:54;;;;;;;26.17;17.90;;;10.00;99.90;;;;;;2611974;54;20399;-73
2021/12/15 10:28:31;;;;;;;27.57;17.10;;;10.20;99.90;;;;;;2610700;54;20568;-73
2021/12/15 10:31:00;;;;;;;30.20;17.53;;;10.10;99.90;;;;;;2611566;54;20434;-72
2021/12/15 10:33:33;;;;;;;23.57;16.00;;;10.00;99.90;;;;;;2611171;39;20845;-70
2021/12/15 10:36:06;;;;;;;26.17;17.50;;;9.80;99.90;;;;;;2610137;54;20456;-72
2021/12/15 10:38:43;;;;;;;19.60;13.93;;;9.90;99.90;;;;;;2608205;54;21739;-72
2021/12/15 10:41:14;;;;;;;27.07;17.63;;;10.00;99.90;;;;;;2611731;54;20403;-71
2021/12/15 10:43:52;;;;;;;30.03;17.97;;;9.90;99.90;;;;;;2611250;54;20443;-71
2021/12/15 10:46:22;;;;;;;23.10;16.80;;;9.70;99.90;;;;;;2612296;54;20415;-71
2021/12/15 10:48:54;;;;;;;23.20;14.80;;;9.70;99.90;;;;;;2608077;47;20448;-70
2021/12/15 10:51:43;;;;;;;18.93;14.03;;;9.70;99.90;;;;;;2611482;54;20881;-72
2021/12/15 10:54:14;;;;;;;28.40;16.87;;;9.80;99.90;;;;;;2612177;54;20443;-71
2021/12/15 10:56:59;;;;;;;23.70;18.57;;;9.90;99.90;;;;;;2612705;46;20564;-72
2021/12/15 10:59:29;;;;;;;24.93;15.23;;;9.90;99.90;;;;;;2612283;54;20471;-72
2021/12/15 11:02:00;;;;;;;31.83;19.03;;;9.80;99.90;;;;;;2612186;54;20424;-72
2021/12/15 11:04:40;;;;;;;23.00;13.97;;;10.00;99.90;;;;;;2611277;54;20415;-71
2021/12/15 11:07:23;;;;;;;22.63;16.70;;;9.90;99.90;;;;;;2612333;54;20410;-73
2021/12/15 11:10:00;;;;;;;32.27;18.33;;;9.70;99.90;;;;;;2610642;54;20952;-71
2021/12/15 11:12:49;;;;;;;26.80;17.93;;;9.90;99.90;;;;;;2611356;54;20443;-71
2021/12/15 11:15:22;;;;;;;29.73;18.40;;;10.10;99.90;;;;;;2612409;54;20468;-72
2021/12/15 11:17:51;;;;;;;21.93;16.57;;;10.00;99.90;;;;;;2613425;54;20972;-70
2021/12/15 11:20:20;;;;;;;29.53;17.30;;;9.90;99.90;;;;;;2611902;54;21047;-70
2021/12/15 11:22:49;;;;;;;25.63;17.43;;;10.00;99.90;;;;;;2610896;54;20477;-73
2021/12/15 11:25:34;;;;;;;25.33;15.50;;;10.10;99.90;;;;;;2611093;39;20852;-71
2021/12/15 11:28:05;;;;;;;22.73;14.60;;;9.90;99.90;;;;;;2610273;54;20522;-71
2021/12/15 11:30:43;;;;;;;27.53;18.37;;;9.90;99.90;;;;;;2610974;54;21144;-73
2021/12/15 11:33:14;;;;;;;30.33;18.83;;;9.90;99.90;;;;;;2611529;54;20411;-71
2021/12/15 11:35:49;;;;;;;21.40;14.97;;;10.20;99.90;;;;;;2611460;54;21308;-71
2021/12/15 11:38:38;;;;;;;25.23;16.70;;;10.20;99.90;;;;;;2609750;39;20826;-73
2021/12/15 11:41:10;;;;;;;30.13;18.77;;;9.90;99.90;;;;;;2611175;39;20793;-70
2021/12/15 11:43:42;;;;;;;27.73;18.07;;;9.80;99.90;;;;;;2612142;54;20416;-73
2021/12/15 11:46:17;;;;;;;21.53;13.97;;;10.00;99.90;;;;;;2612060;54;20407;-72
2021/12/15 11:48:44;;;;;;;22.77;16.20;;;9.90;99.90;;;;;;2610507;54;20435;-73
2021/12/15 11:51:10;;;;;;;25.60;18.50;;;9.80;99.90;;;;;;2611955;47;20465;-71
2021/12/15 11:53:48;;;;;;;22.37;14.67;;;10.00;99.90;;;;;;2611833;54;20432;-70
2021/12/15 11:56:26;;;;;;;24.70;18.70;;;9.90;99.90;;;;;;2611286;54;20531;-71
2021/12/15 11:58:58;;;;;;;24.10;17.67;;;10.00;99.90;;;;;;2609562;54;20432;-71
2021/12/15 12:01:44;;;;;;;28.87;19.50;;;10.10;99.90;;;;;;2613005;54;20531;-70
2021/12/15 12:04:13;;;;;;;17.33;11.67;;;10.10;99.90;;;;;;2612541;54;20420;-71
2021/12/15 12:06:39;;;;;;;21.57;13.77;;;10.00;99.90;;;;;;2611306;54;20431;-71
2021/12/15 12:09:05;;;;;;;27.83;18.10;;;9.90;99.90;;;;;;2612257;47;20523;-71
2021/12/15 12:11:33;;;;;;;29.73;19.57;;;10.00;99.90;;;;;;2611965;54;20431;-72
2021/12/15 12:14:00;;;;;;;20.77;14.40;;;10.10;99.90;;;;;;2611604;54;20410;-71
2021/12/15 12:16:27;;;;;;;26.20;16.20;;;10.00;99.90;;;;;;2612205;54;20440;-71
2021/12/15 12:18:55;;;;;;;26.70;15.40;;;10.00;99.90;;;;;;2612529;51;20963;-71
2021/12/15 12:21:22;;;;;;;29.07;19.00;;;10.00;99.90;;;;;;2613012;39;20953;-71
2021/12/15 12:23:49;;;;;;;29.00;19.40;;;10.20;99.90;;;;;;2613503;54;20426;-71
2021/12/15 12:26:17;;;;;;;27.93;16.83;;;10.20;99.90;;;;;;2613182;47;20420;-73
2021/12/15 12:28:46;;;;;;;35.43;20.33;;;10.40;99.90;;;;;;2612078;54;20510;-73
2021/12/15 12:31:16;;;;;;;27.00;17.83;;;10.20;99.90;;;;;;2609487;54;20960;-71
2021/12/15 12:33:42;;;;;;;25.47;18.80;;;10.10;99.90;;;;;;2613848;54;20427;-71
2021/12/15 12:36:29;;;;;;;28.63;18.13;;;10.20;99.90;;;;;;2612190;54;20531;-71
2021/12/15 12:39:03;;;;;;;31.03;18.17;;;10.20;99.90;;;;;;2612439;47;20399;-72
2021/12/15 12:41:36;;;;;;;27.77;18.33;;;10.00;99.90;;;;;;2611915;47;20982;-71
2021/12/15 12:44:05;;;;;;;30.60;16.70;;;10.00;99.90;;;;;;2611386;47;20538;-72
2021/12/15 12:46:54;;;;;;;26.90;17.50;;;10.10;99.90;;;;;;2613795;54;21440;-70
2021/12/15 12:59:23;;;;;;;32.47;21.40;;;10.00;99.90;;;;;;2614202;39;21001;-74
2021/12/15 13:00:54;;;;;;;28.10;18.30;;;10.10;99.90;;;;;;2612843;54;20443;-72
2021/12/15 13:03:46;;;;;;;41.77;23.00;;;10.00;99.90;;;;;;2612274;54;20861;-69
2021/12/15 13:06:19;;;;;;;30.63;20.07;;;10.10;99.90;;;;;;2612108;54;20431;-71
2021/12/15 13:09:03;;;;;;;37.23;23.47;;;10.10;99.90;;;;;;2613156;39;20825;-71
2021/12/15 13:11:36;;;;;;;35.83;23.47;;;10.20;99.90;;;;;;2610653;54;20412;-70
2021/12/15 13:14:13;;;;;;;35.50;23.43;;;10.30;99.90;;;;;;2611704;54;20415;-72
2021/12/15 13:17:08;;;;;;;32.37;23.20;;;10.20;99.90;;;;;;2611807;54;20430;-72
2021/12/15 13:19:44;;;;;;;35.73;22.87;;;10.30;99.90;;;;;;2610049;54;20450;-70
2021/12/15 13:30:42;;;;;;;35.53;23.70;;;10.50;99.90;;;;;;2611236;54;20505;-73
2021/12/15 13:33:17;;;;;;;38.23;21.73;;;10.60;99.90;;;;;;2613543;49;20431;-71
2021/12/15 13:35:51;;;;;;;38.93;22.10;;;10.50;99.90;;;;;;2613075;54;20429;-71
2021/12/15 13:38:30;;;;;;;33.27;23.30;;;10.40;99.90;;;;;;2615284;31;20834;-72
2021/12/15 13:41:18;;;;;;;34.20;22.17;;;10.50;99.90;;;;;;2612032;54;20439;-73
2021/12/15 13:43:52;;;;;;;37.83;22.70;;;10.30;99.90;;;;;;2612226;47;20431;-71
2021/12/15 13:46:45;;;;;;;34.13;22.03;;;10.40;99.90;;;;;;2613555;54;20403;-71
2021/12/15 13:49:23;;;;;;;35.00;23.17;;;10.40;99.90;;;;;;2614841;54;20976;-70
2021/12/15 13:52:10;;;;;;;32.63;24.40;;;10.30;99.90;;;;;;2612911;54;20391;-73
2021/12/15 13:54:36;;;;;;;43.93;25.60;;;10.50;99.90;;;;;;2613165;54;20407;-70
2021/12/15 13:57:14;;;;;;;37.30;24.33;;;10.50;99.90;;;;;;2613875;54;20414;-72
2021/12/15 13:59:55;;;;;;;31.97;21.80;;;10.60;99.90;;;;;;2613723;47;20166;-71
2021/12/15 14:02:32;;;;;;;34.80;21.90;;;10.30;99.90;;;;;;2613782;39;20862;-71
2021/12/15 14:05:16;;;;;;;37.20;24.63;;;10.50;99.90;;;;;;2614309;54;20419;-70
2021/12/15 14:07:58;;;;;;;46.63;25.53;;;10.50;99.90;;;;;;2613907;39;20859;-73
2021/12/15 14:10:24;;;;;;;34.67;22.10;;;10.70;99.90;;;;;;2612951;39;21267;-71
2021/12/15 14:12:57;;;;;;;35.17;24.47;;;10.60;99.90;;;;;;2614011;39;21085;-73